Time;durP1;ratioP1;P1;durP2;ratioP2;P2;SDS_P1;SDS_P2;PMS_P1;PMS_P2;Temp;Humidity;BMP_temperature;BMP_pressure;BME280_temperature;BME280_humidity;BME280_pressure;Samples;Min_cycle;Max_cycle;Signal;HPM_P1;HPM_P2
2022/12/28 00:01:14;;;;;;;3.43;3.13;;;;;;;;;;4948328;28;20228;-74
2022/12/28 00:03:41;;;;;;;7.87;3.10;;;;;;;;;;4969518;28;20243;-73
2022/12/28 00:06:09;;;;;;;3.17;2.87;;;;;;;;;;4967782;28;20214;-73
2022/12/28 00:08:36;;;;;;;3.77;2.67;;;;;;;;;;4970210;28;20299;-75
2022/12/28 00:11:05;;;;;;;3.40;3.10;;;;;;;;;;4970979;28;20232;-69
2022/12/28 00:13:44;;;;;;;5.87;2.93;;;;;;;;;;4959561;28;20200;-67
2022/12/28 00:16:14;;;;;;;3.87;3.57;;;;;;;;;;4959367;28;20212;-69
2022/12/28 00:18:42;;;;;;;5.80;3.57;;;;;;;;;;4948674;28;20661;-68
2022/12/28 00:21:09;;;;;;;7.20;3.40;;;;;;;;;;4955167;28;20224;-69
2022/12/28 00:23:36;;;;;;;6.27;3.67;;;;;;;;;;4951099;28;20224;-69
2022/12/28 00:26:08;;;;;;;8.20;3.80;;;;;;;;;;4949277;28;20212;-68
2022/12/28 00:28:35;;;;;;;5.57;3.60;;;;;;;;;;4953145;28;20216;-66
2022/12/28 00:31:02;;;;;;;7.23;3.63;;;;;;;;;;4963354;28;20235;-67
2022/12/28 00:33:34;;;;;;;4.30;3.90;;;;;;;;;;4967061;28;20205;-69
2022/12/28 00:36:01;;;;;;;5.97;3.50;;;;;;;;;;4962116;28;20572;-70
2022/12/28 00:38:37;;;;;;;4.57;3.80;;;;;;;;;;4964966;28;20387;-70
2022/12/28 00:41:04;;;;;;;5.77;3.70;;;;;;;;;;4973177;28;21046;-68
2022/12/28 00:43:32;;;;;;;7.77;3.93;;;;;;;;;;4960337;28;20624;-68
2022/12/28 00:46:00;;;;;;;4.33;3.93;;;;;;;;;;4965017;28;20213;-70
2022/12/28 00:48:27;;;;;;;5.57;4.63;;;;;;;;;;4975290;28;20681;-68
2022/12/28 00:51:05;;;;;;;6.03;4.43;;;;;;;;;;4961957;28;20232;-68
2022/12/28 00:53:32;;;;;;;5.87;4.93;;;;;;;;;;4962970;28;20296;-67
2022/12/28 00:56:10;;;;;;;7.60;5.03;;;;;;;;;;4965829;28;20290;-70
2022/12/28 00:58:38;;;;;;;8.23;5.53;;;;;;;;;;4950294;28;20266;-68
2022/12/28 01:01:06;;;;;;;8.93;5.73;;;;;;;;;;4947355;28;20315;-70
2022/12/28 01:03:33;;;;;;;7.00;5.53;;;;;;;;;;4974582;28;20216;-68
2022/12/28 01:06:04;;;;;;;9.87;5.80;;;;;;;;;;4972324;28;20227;-67
2022/12/28 01:08:31;;;;;;;8.23;6.43;;;;;;;;;;4962622;28;20204;-67
2022/12/28 01:10:58;;;;;;;10.03;6.10;;;;;;;;;;4960623;28;20259;-68
2022/12/28 01:13:26;;;;;;;15.10;6.60;;;;;;;;;;4967388;28;20661;-70
2022/12/28 01:15:53;;;;;;;12.40;6.63;;;;;;;;;;4959421;28;23544;-69
2022/12/28 01:18:20;;;;;;;8.57;6.47;;;;;;;;;;4967875;28;20212;-70
2022/12/28 01:20:47;;;;;;;11.00;6.10;;;;;;;;;;4960468;28;20224;-69
2022/12/28 01:23:14;;;;;;;9.10;6.13;;;;;;;;;;4961615;28;20216;-70
2022/12/28 01:25:42;;;;;;;9.60;6.37;;;;;;;;;;4945851;28;20212;-69
2022/12/28 01:28:09;;;;;;;9.97;6.00;;;;;;;;;;4956614;28;20208;-67
2022/12/28 01:30:36;;;;;;;10.30;6.30;;;;;;;;;;4950526;28;20311;-69
2022/12/28 01:33:05;;;;;;;10.07;7.33;;;;;;;;;;4952116;28;20970;-69
2022/12/28 01:35:32;;;;;;;13.77;6.60;;;;;;;;;;4957400;28;20283;-68
2022/12/28 01:37:59;;;;;;;13.17;7.57;;;;;;;;;;4957957;28;20210;-70
2022/12/28 01:40:27;;;;;;;10.93;6.83;;;;;;;;;;4946153;28;20307;-70
2022/12/28 01:43:00;;;;;;;11.60;7.07;;;;;;;;;;4957307;28;20208;-69
2022/12/28 01:45:28;;;;;;;9.60;7.70;;;;;;;;;;4957228;28;20208;-69
2022/12/28 01:47:55;;;;;;;9.77;7.03;;;;;;;;;;4950667;28;20211;-68
2022/12/28 01:50:25;;;;;;;12.23;7.13;;;;;;;;;;4959478;28;20403;-68
2022/12/28 01:53:02;;;;;;;10.30;7.07;;;;;;;;;;4959600;28;20227;-69
2022/12/28 01:55:32;;;;;;;10.73;7.10;;;;;;;;;;4948547;28;20220;-69
2022/12/28 01:58:04;;;;;;;8.00;6.77;;;;;;;;;;4962698;28;20487;-69
2022/12/28 02:00:32;;;;;;;12.30;7.00;;;;;;;;;;4959279;28;21513;-69
2022/12/28 02:03:04;;;;;;;9.83;7.47;;;;;;;;;;4954097;28;20246;-67
2022/12/28 02:05:37;;;;;;;11.73;6.63;;;;;;;;;;4965725;28;20211;-69
2022/12/28 02:08:14;;;;;;;9.17;6.67;;;;;;;;;;4961456;28;20303;-70
2022/12/28 02:10:42;;;;;;;12.60;6.83;;;;;;;;;;4960444;28;21213;-69
2022/12/28 02:13:13;;;;;;;9.10;6.60;;;;;;;;;;4966818;28;20218;-68
2022/12/28 02:15:41;;;;;;;7.50;5.70;;;;;;;;;;4963696;28;20657;-70
2022/12/28 02:18:08;;;;;;;9.90;6.50;;;;;;;;;;4961986;28;20295;-69
2022/12/28 02:20:43;;;;;;;9.10;6.63;;;;;;;;;;4959746;28;20219;-70
2022/12/28 02:23:33;;;;;;;9.77;6.60;;;;;;;;;;4960651;28;20412;-70
2022/12/28 02:26:00;;;;;;;8.87;6.43;;;;;;;;;;4960206;28;20348;-69
2022/12/28 02:28:40;;;;;;;9.43;5.93;;;;;;;;;;4962146;28;20246;-70
2022/12/28 02:31:26;;;;;;;8.33;6.33;;;;;;;;;;4956446;28;20632;-68
2022/12/28 02:33:58;;;;;;;10.33;6.30;;;;;;;;;;4952148;28;20592;-69
2022/12/28 02:36:28;;;;;;;9.13;5.80;;;;;;;;;;4969535;28;20291;-69
2022/12/28 02:38:59;;;;;;;8.70;6.77;;;;;;;;;;4957725;28;20328;-70
2022/12/28 02:41:26;;;;;;;8.20;6.13;;;;;;;;;;4952822;28;20232;-71
2022/12/28 02:43:54;;;;;;;10.27;6.40;;;;;;;;;;4965191;28;20302;-69
2022/12/28 02:52:08;;;;;;;9.50;6.10;;;;;;;;;;4968852;28;20322;-70
2022/12/28 02:57:41;;;;;;;6.37;4.70;;;;;;;;;;4972207;28;20220;-70
2022/12/28 03:00:15;;;;;;;7.43;5.40;;;;;;;;;;4957501;28;20586;-71
2022/12/28 03:03:01;;;;;;;7.00;5.73;;;;;;;;;;4973929;28;20204;-70
2022/12/28 03:08:50;;;;;;;8.03;5.93;;;;;;;;;;4930309;28;20319;-70
2022/12/28 03:11:19;;;;;;;6.77;5.30;;;;;;;;;;4963335;28;20327;-70
2022/12/28 03:13:57;;;;;;;8.80;6.63;;;;;;;;;;4970504;28;20212;-68
2022/12/28 03:16:25;;;;;;;9.87;6.50;;;;;;;;;;4964676;28;20204;-66
2022/12/28 03:32:58;;;;;;;10.07;6.90;;;;;;;;;;4964226;28;20264;-68
2022/12/28 03:35:31;;;;;;;10.30;7.67;;;;;;;;;;4969232;28;20210;-68
2022/12/28 03:38:02;;;;;;;9.27;7.07;;;;;;;;;;4968702;28;20283;-69
2022/12/28 03:40:49;;;;;;;11.10;7.57;;;;;;;;;;4956147;28;20236;-70
2022/12/28 03:43:43;;;;;;;10.37;6.73;;;;;;;;;;4959091;28;20676;-69
2022/12/28 03:46:20;;;;;;;12.00;7.70;;;;;;;;;;4951100;28;20324;-71
2022/12/28 03:48:48;;;;;;;13.77;8.87;;;;;;;;;;4967781;28;21707;-70
2022/12/28 03:51:16;;;;;;;15.13;9.30;;;;;;;;;;4956363;28;20254;-67
2022/12/28 03:53:44;;;;;;;15.00;9.93;;;;;;;;;;4962240;28;20717;-67
2022/12/28 03:56:16;;;;;;;15.37;9.47;;;;;;;;;;4960239;28;20731;-68
2022/12/28 03:58:44;;;;;;;14.30;8.57;;;;;;;;;;4957916;28;20287;-69
2022/12/28 04:01:11;;;;;;;16.97;9.77;;;;;;;;;;4965518;28;21089;-69
2022/12/28 04:03:39;;;;;;;14.20;9.63;;;;;;;;;;4956143;28;20271;-68
2022/12/28 04:06:07;;;;;;;17.40;10.80;;;;;;;;;;4942406;28;20208;-68
2022/12/28 04:08:34;;;;;;;16.07;10.50;;;;;;;;;;4961968;28;20351;-68
2022/12/28 04:11:02;;;;;;;18.93;10.40;;;;;;;;;;4971311;28;20228;-69
2022/12/28 04:13:30;;;;;;;15.67;10.23;;;;;;;;;;4983100;23;20741;-62
2022/12/28 04:15:58;;;;;;;16.63;10.10;;;;;;;;;;4959651;28;20307;-63
2022/12/28 04:18:25;;;;;;;16.80;11.37;;;;;;;;;;4948443;28;20964;-63
2022/12/28 04:20:53;;;;;;;18.10;11.27;;;;;;;;;;4960051;28;20409;-64
2022/12/28 04:23:20;;;;;;;17.13;11.40;;;;;;;;;;4930901;28;20315;-62
2022/12/28 04:26:07;;;;;;;19.17;11.73;;;;;;;;;;4933963;28;20316;-63
2022/12/28 04:28:35;;;;;;;18.23;11.53;;;;;;;;;;4920292;28;20700;-64
2022/12/28 04:31:03;;;;;;;19.93;12.67;;;;;;;;;;4924543;28;20304;-64
2022/12/28 04:33:34;;;;;;;19.33;12.50;;;;;;;;;;4919609;28;20775;-64
2022/12/28 04:36:09;;;;;;;18.33;11.77;;;;;;;;;;4937240;28;20300;-63
2022/12/28 04:38:36;;;;;;;19.80;12.00;;;;;;;;;;4945497;28;20295;-63
2022/12/28 04:41:04;;;;;;;18.30;11.87;;;;;;;;;;4923664;28;20259;-63
2022/12/28 04:43:32;;;;;;;21.83;12.53;;;;;;;;;;4927959;28;20228;-64
2022/12/28 04:46:04;;;;;;;18.17;12.07;;;;;;;;;;4930305;28;20882;-64
2022/12/28 04:48:32;;;;;;;20.03;12.60;;;;;;;;;;4934345;28;20223;-64
2022/12/28 04:51:05;;;;;;;20.43;12.50;;;;;;;;;;4929507;28;20754;-64
2022/12/28 04:53:35;;;;;;;16.47;11.43;;;;;;;;;;4952405;28;20240;-64
2022/12/28 04:56:03;;;;;;;18.23;11.77;;;;;;;;;;4942749;28;20722;-64
2022/12/28 04:58:31;;;;;;;20.27;13.10;;;;;;;;;;4923390;28;20354;-64
2022/12/28 05:01:12;;;;;;;16.73;11.03;;;;;;;;;;4925848;28;20894;-64
2022/12/28 05:03:41;;;;;;;19.77;12.97;;;;;;;;;;4944857;28;23633;-64
2022/12/28 05:06:11;;;;;;;19.70;12.13;;;;;;;;;;4931028;28;20320;-64
2022/12/28 05:08:38;;;;;;;17.67;11.70;;;;;;;;;;4924598;28;20223;-64
2022/12/28 05:11:08;;;;;;;17.67;11.73;;;;;;;;;;4921771;28;20212;-64
2022/12/28 05:13:36;;;;;;;19.23;12.57;;;;;;;;;;4938885;28;20307;-64
2022/12/28 05:16:07;;;;;;;19.50;12.57;;;;;;;;;;4933053;28;20209;-64
2022/12/28 05:18:35;;;;;;;19.70;12.30;;;;;;;;;;4930168;28;20224;-64
2022/12/28 05:21:07;;;;;;;19.63;12.53;;;;;;;;;;4927352;28;20300;-64
2022/12/28 05:23:36;;;;;;;20.90;12.73;;;;;;;;;;4924214;28;21509;-65
2022/12/28 05:26:04;;;;;;;23.03;12.83;;;;;;;;;;4926674;28;20244;-65
2022/12/28 05:28:32;;;;;;;20.73;12.73;;;;;;;;;;4926477;28;20225;-65
2022/12/28 05:31:00;;;;;;;19.07;12.80;;;;;;;;;;4933779;28;20325;-65
2022/12/28 05:33:29;;;;;;;21.57;13.57;;;;;;;;;;4928791;28;20330;-63
2022/12/28 05:35:56;;;;;;;20.60;12.90;;;;;;;;;;4916850;28;20236;-64
2022/12/28 05:38:24;;;;;;;22.30;14.03;;;;;;;;;;4930401;28;20249;-64
2022/12/28 05:40:51;;;;;;;21.27;12.70;;;;;;;;;;4928456;28;20312;-64
2022/12/28 05:43:19;;;;;;;21.70;13.70;;;;;;;;;;4923213;28;20236;-64
2022/12/28 05:45:46;;;;;;;19.97;13.43;;;;;;;;;;4928614;28;20218;-65
2022/12/28 05:48:14;;;;;;;21.20;13.57;;;;;;;;;;4922987;28;22149;-64
2022/12/28 05:50:41;;;;;;;22.57;14.30;;;;;;;;;;4936574;28;20209;-64
2022/12/28 05:53:08;;;;;;;25.27;14.30;;;;;;;;;;4926429;28;20248;-64
2022/12/28 05:55:36;;;;;;;20.97;14.63;;;;;;;;;;4924426;28;20300;-65
2022/12/28 05:58:04;;;;;;;23.03;14.47;;;;;;;;;;4943835;28;20209;-64
2022/12/28 06:00:31;;;;;;;21.33;14.63;;;;;;;;;;4937822;28;20214;-63
2022/12/28 06:02:59;;;;;;;25.20;16.17;;;;;;;;;;4934756;28;20596;-65
2022/12/28 06:05:26;;;;;;;22.07;15.10;;;;;;;;;;4938321;28;20271;-64
2022/12/28 06:07:54;;;;;;;24.73;15.13;;;;;;;;;;4931862;28;20237;-64
2022/12/28 06:10:21;;;;;;;21.60;14.37;;;;;;;;;;4949459;28;20325;-63
2022/12/28 06:12:49;;;;;;;23.37;14.87;;;;;;;;;;4925459;28;20236;-63
2022/12/28 06:15:16;;;;;;;24.17;14.73;;;;;;;;;;4929262;28;20240;-65
2022/12/28 06:17:44;;;;;;;25.87;16.03;;;;;;;;;;4940071;28;20256;-63
2022/12/28 06:20:11;;;;;;;22.47;13.47;;;;;;;;;;4934421;28;20671;-63
2022/12/28 06:22:39;;;;;;;22.10;14.20;;;;;;;;;;4951660;28;20233;-65
2022/12/28 06:25:06;;;;;;;22.40;14.73;;;;;;;;;;4935119;28;20301;-64
2022/12/28 06:27:34;;;;;;;23.00;15.93;;;;;;;;;;4951061;28;20210;-65
2022/12/28 06:30:01;;;;;;;21.90;14.70;;;;;;;;;;4956022;28;20221;-65
2022/12/28 06:32:28;;;;;;;20.83;13.83;;;;;;;;;;4928888;28;20235;-64
2022/12/28 06:34:56;;;;;;;23.50;14.43;;;;;;;;;;4954204;28;20838;-63
2022/12/28 06:37:23;;;;;;;21.10;14.47;;;;;;;;;;4932781;28;20201;-65
2022/12/28 06:39:50;;;;;;;21.13;15.00;;;;;;;;;;4921982;28;20287;-63
2022/12/28 06:42:18;;;;;;;27.50;18.67;;;;;;;;;;4949673;28;20323;-63
2022/12/28 06:44:45;;;;;;;20.13;13.97;;;;;;;;;;4950677;28;20224;-65
2022/12/28 06:47:13;;;;;;;21.80;14.53;;;;;;;;;;4939480;28;20216;-63
2022/12/28 06:49:40;;;;;;;22.50;14.70;;;;;;;;;;4925042;28;20214;-64
2022/12/28 06:52:07;;;;;;;20.73;13.73;;;;;;;;;;4931503;28;20216;-63
2022/12/28 06:54:35;;;;;;;21.43;13.43;;;;;;;;;;4929504;28;20205;-64
2022/12/28 06:57:02;;;;;;;23.83;15.47;;;;;;;;;;4944378;28;20206;-63
2022/12/28 06:59:30;;;;;;;21.57;14.83;;;;;;;;;;4935374;28;20785;-63
2022/12/28 07:01:57;;;;;;;19.63;14.60;;;;;;;;;;4958315;28;20209;-64
2022/12/28 07:04:25;;;;;;;24.27;15.70;;;;;;;;;;4934165;28;20269;-63
2022/12/28 07:06:52;;;;;;;22.13;15.37;;;;;;;;;;4943286;28;20640;-63
2022/12/28 07:09:19;;;;;;;18.70;13.37;;;;;;;;;;4930925;28;20336;-64
2022/12/28 07:11:50;;;;;;;19.93;13.93;;;;;;;;;;4938138;28;20291;-65
2022/12/28 07:14:17;;;;;;;19.67;13.03;;;;;;;;;;4944522;28;20232;-63
2022/12/28 07:16:45;;;;;;;22.47;14.20;;;;;;;;;;4938329;28;20290;-65
2022/12/28 07:19:13;;;;;;;21.93;14.33;;;;;;;;;;4954846;28;20206;-63
2022/12/28 07:21:40;;;;;;;20.30;13.90;;;;;;;;;;4950281;28;20268;-65
2022/12/28 07:24:08;;;;;;;19.93;13.30;;;;;;;;;;4935679;28;20241;-63
2022/12/28 07:26:36;;;;;;;19.27;14.03;;;;;;;;;;4934953;28;20212;-63
2022/12/28 07:29:05;;;;;;;20.77;14.23;;;;;;;;;;4941960;28;20244;-65
2022/12/28 07:31:34;;;;;;;19.53;14.33;;;;;;;;;;4941069;28;20618;-65
2022/12/28 07:34:11;;;;;;;19.03;13.50;;;;;;;;;;4948895;28;21066;-63
2022/12/28 07:36:38;;;;;;;21.07;13.70;;;;;;;;;;4941059;28;20267;-65
2022/12/28 07:39:06;;;;;;;23.33;14.80;;;;;;;;;;4934750;28;20217;-66
2022/12/28 07:41:34;;;;;;;19.77;13.80;;;;;;;;;;4949045;28;20717;-64
2022/12/28 07:44:02;;;;;;;21.47;14.77;;;;;;;;;;4947533;28;20232;-65
2022/12/28 07:46:31;;;;;;;21.60;15.10;;;;;;;;;;4935671;28;20300;-63
2022/12/28 07:49:02;;;;;;;21.53;13.73;;;;;;;;;;4945334;28;20204;-64
2022/12/28 07:51:30;;;;;;;20.13;13.23;;;;;;;;;;4938311;28;20304;-63
2022/12/28 07:53:58;;;;;;;22.77;14.40;;;;;;;;;;4944415;28;20233;-63
2022/12/28 07:56:27;;;;;;;20.53;14.30;;;;;;;;;;4936644;28;20217;-63
2022/12/28 07:58:56;;;;;;;21.97;13.97;;;;;;;;;;4940010;28;20210;-63
2022/12/28 08:01:24;;;;;;;20.93;13.80;;;;;;;;;;4930229;28;20237;-65
2022/12/28 08:03:53;;;;;;;20.97;14.17;;;;;;;;;;4942689;28;20341;-65
2022/12/28 08:06:22;;;;;;;20.67;13.93;;;;;;;;;;4937148;28;20935;-63
2022/12/28 08:08:50;;;;;;;21.23;14.00;;;;;;;;;;4931831;28;20210;-64
2022/12/28 08:11:20;;;;;;;19.40;14.17;;;;;;;;;;4952525;28;20220;-64
2022/12/28 08:13:49;;;;;;;21.63;14.00;;;;;;;;;;4941954;28;20257;-64
2022/12/28 08:16:17;;;;;;;19.17;14.03;;;;;;;;;;4934920;28;20218;-64
2022/12/28 08:18:45;;;;;;;22.30;15.30;;;;;;;;;;4957829;28;20263;-64
2022/12/28 08:21:15;;;;;;;23.20;14.30;;;;;;;;;;4948914;28;20209;-63
2022/12/28 08:23:43;;;;;;;21.50;14.50;;;;;;;;;;4952939;28;20646;-63
2022/12/28 08:26:10;;;;;;;18.93;13.83;;;;;;;;;;4941262;28;20232;-64
2022/12/28 08:28:38;;;;;;;21.43;14.67;;;;;;;;;;4934282;28;20225;-64
2022/12/28 08:31:10;;;;;;;20.70;14.03;;;;;;;;;;4933100;28;20213;-65
2022/12/28 08:33:38;;;;;;;25.00;15.97;;;;;;;;;;4946050;28;20685;-64
2022/12/28 08:36:06;;;;;;;21.23;14.13;;;;;;;;;;4936600;28;20628;-63
2022/12/28 08:38:33;;;;;;;19.57;14.40;;;;;;;;;;4940631;28;20205;-65
2022/12/28 08:41:01;;;;;;;20.00;14.43;;;;;;;;;;4949630;28;20217;-62
2022/12/28 08:43:29;;;;;;;20.70;14.40;;;;;;;;;;4936895;28;20230;-62
2022/12/28 08:46:07;;;;;;;19.43;13.50;;;;;;;;;;4940070;28;20213;-63
2022/12/28 08:48:35;;;;;;;20.30;15.43;;;;;;;;;;4938889;28;20256;-62
2022/12/28 08:51:04;;;;;;;15.90;11.73;;;;;;;;;;4930672;28;20233;-63
2022/12/28 08:53:32;;;;;;;17.87;11.80;;;;;;;;;;4954414;28;20248;-64
2022/12/28 08:56:04;;;;;;;17.83;13.53;;;;;;;;;;4936456;28;20235;-62
2022/12/28 08:58:33;;;;;;;18.17;12.97;;;;;;;;;;4931782;28;20231;-64
2022/12/28 09:01:06;;;;;;;23.43;14.50;;;;;;;;;;4942097;28;20240;-63
2022/12/28 09:03:35;;;;;;;22.47;14.47;;;;;;;;;;4944023;28;20236;-62
2022/12/28 09:06:07;;;;;;;26.00;17.67;;;;;;;;;;4930403;28;20213;-62
2022/12/28 09:08:35;;;;;;;18.97;13.27;;;;;;;;;;4936692;28;20205;-64
2022/12/28 09:11:03;;;;;;;18.93;14.17;;;;;;;;;;4933521;28;20217;-64
2022/12/28 09:13:32;;;;;;;16.13;12.27;;;;;;;;;;4937080;28;20241;-63
2022/12/28 09:16:01;;;;;;;23.13;15.53;;;;;;;;;;4939653;28;20587;-64
2022/12/28 09:18:28;;;;;;;20.47;13.97;;;;;;;;;;4929755;28;20212;-64
2022/12/28 09:20:56;;;;;;;17.83;12.80;;;;;;;;;;4947180;28;20747;-64
2022/12/28 09:23:23;;;;;;;16.33;12.67;;;;;;;;;;4943184;28;20232;-64
2022/12/28 09:25:51;;;;;;;17.63;12.43;;;;;;;;;;4932394;28;20296;-63
2022/12/28 09:28:18;;;;;;;13.80;10.90;;;;;;;;;;4947409;28;20244;-64
2022/12/28 09:30:45;;;;;;;18.43;12.67;;;;;;;;;;4948579;28;20233;-64
2022/12/28 09:35:59;;;;;;;16.30;12.17;;;;;;;;;;4950502;28;20673;-64
2022/12/28 09:38:26;;;;;;;14.90;11.17;;;;;;;;;;4927822;28;20289;-64
2022/12/28 09:40:54;;;;;;;15.63;11.50;;;;;;;;;;4946594;28;20271;-63
2022/12/28 09:43:21;;;;;;;15.57;11.13;;;;;;;;;;4935058;28;20232;-62
2022/12/28 09:45:49;;;;;;;16.07;11.67;;;;;;;;;;4930398;28;20221;-62
2022/12/28 09:48:19;;;;;;;16.30;11.33;;;;;;;;;;4936503;28;20712;-63
2022/12/28 09:50:46;;;;;;;14.93;12.03;;;;;;;;;;4939539;28;20707;-62
2022/12/28 09:53:35;;;;;;;14.77;10.70;;;;;;;;;;4943408;28;20288;-64
2022/12/28 09:56:02;;;;;;;14.47;10.77;;;;;;;;;;4938250;28;20243;-63
2022/12/28 09:58:31;;;;;;;13.13;10.40;;;;;;;;;;4935017;28;20220;-64
2022/12/28 10:00:59;;;;;;;13.20;10.27;;;;;;;;;;4939617;28;20261;-62
2022/12/28 10:03:31;;;;;;;13.50;10.60;;;;;;;;;;4928727;28;20271;-62
2022/12/28 10:05:59;;;;;;;12.10;9.57;;;;;;;;;;4938738;28;20210;-63
2022/12/28 10:08:27;;;;;;;14.90;10.97;;;;;;;;;;4945651;28;20255;-64
2022/12/28 10:10:59;;;;;;;12.83;10.70;;;;;;;;;;4950016;28;20209;-62
2022/12/28 10:13:28;;;;;;;11.47;10.03;;;;;;;;;;4937714;28;20776;-64
2022/12/28 10:16:17;;;;;;;16.57;10.77;;;;;;;;;;4940125;28;20202;-64
2022/12/28 10:18:47;;;;;;;24.57;13.80;;;;;;;;;;4956789;28;20220;-64
2022/12/28 10:21:15;;;;;;;12.13;9.70;;;;;;;;;;4923183;28;20224;-62
2022/12/28 10:23:43;;;;;;;15.80;11.10;;;;;;;;;;4937813;28;20283;-63
2022/12/28 10:26:30;;;;;;;12.90;10.07;;;;;;;;;;4938434;28;20730;-63
2022/12/28 10:28:59;;;;;;;10.47;8.83;;;;;;;;;;4935135;28;20213;-62
2022/12/28 10:31:34;;;;;;;12.70;9.53;;;;;;;;;;4943539;28;20217;-64
2022/12/28 10:34:01;;;;;;;12.30;9.93;;;;;;;;;;4949304;28;20228;-62
2022/12/28 10:36:33;;;;;;;13.03;9.40;;;;;;;;;;4954891;28;20271;-63
2022/12/28 10:39:01;;;;;;;10.70;8.83;;;;;;;;;;4947211;28;20233;-63
2022/12/28 10:41:33;;;;;;;12.00;8.43;;;;;;;;;;4932177;28;20312;-62
2022/12/28 10:44:24;;;;;;;10.57;8.37;;;;;;;;;;4931422;28;20614;-64
2022/12/28 10:47:26;;;;;;;10.30;8.83;;;;;;;;;;4929344;28;20303;-64
2022/12/28 10:49:54;;;;;;;10.90;8.43;;;;;;;;;;4931476;28;20252;-65
2022/12/28 10:52:41;;;;;;;8.53;7.60;;;;;;;;;;4951273;28;20311;-64
2022/12/28 10:55:26;;;;;;;9.40;8.00;;;;;;;;;;4940570;28;20236;-64
2022/12/28 10:57:53;;;;;;;9.90;8.80;;;;;;;;;;4944193;28;20550;-64
2022/12/28 11:00:40;;;;;;;11.60;9.83;;;;;;;;;;4945613;28;20205;-65
2022/12/28 11:03:17;;;;;;;9.97;8.70;;;;;;;;;;4951434;28;20327;-65
2022/12/28 11:05:45;;;;;;;9.40;7.27;;;;;;;;;;4937690;28;20205;-65
2022/12/28 11:08:23;;;;;;;12.77;8.07;;;;;;;;;;4942380;28;20213;-65
2022/12/28 11:10:56;;;;;;;9.93;8.33;;;;;;;;;;4936527;28;20211;-65
2022/12/28 11:13:26;;;;;;;10.03;8.07;;;;;;;;;;4944542;28;20716;-65
2022/12/28 11:15:53;;;;;;;10.37;8.00;;;;;;;;;;4937286;28;20209;-65
2022/12/28 11:18:21;;;;;;;9.97;7.97;;;;;;;;;;4939478;28;20569;-65
2022/12/28 11:20:50;;;;;;;8.10;7.30;;;;;;;;;;4940151;28;20206;-65
2022/12/28 11:23:19;;;;;;;8.97;6.73;;;;;;;;;;4944283;28;20232;-65
2022/12/28 11:25:47;;;;;;;7.73;6.60;;;;;;;;;;4942136;28;20249;-65
2022/12/28 11:28:16;;;;;;;8.50;7.10;;;;;;;;;;4945072;28;20201;-65
2022/12/28 11:30:44;;;;;;;7.30;6.53;;;;;;;;;;4940248;28;20649;-64
2022/12/28 11:33:26;;;;;;;8.83;7.00;;;;;;;;;;4961231;28;20229;-65
2022/12/28 11:35:54;;;;;;;9.17;7.23;;;;;;;;;;4962479;28;20614;-65
2022/12/28 11:38:39;;;;;;;7.93;6.90;;;;;;;;;;4930360;28;20208;-65
2022/12/28 11:41:10;;;;;;;9.43;6.70;;;;;;;;;;4940250;28;20202;-63
2022/12/28 11:43:39;;;;;;;8.10;6.27;;;;;;;;;;4952189;28;20541;-64
2022/12/28 11:46:27;;;;;;;7.43;6.37;;;;;;;;;;4932055;28;20272;-64
2022/12/28 11:49:02;;;;;;;6.90;6.10;;;;;;;;;;4937774;28;22346;-64
2022/12/28 11:51:31;;;;;;;9.43;6.80;;;;;;;;;;4954385;28;20283;-64
2022/12/28 11:54:21;;;;;;;6.20;5.60;;;;;;;;;;4933428;28;20310;-64
2022/12/28 11:56:48;;;;;;;7.40;6.37;;;;;;;;;;4951503;28;20692;-64
2022/12/28 11:59:24;;;;;;;15.80;10.27;;;;;;;;;;4946780;28;20243;-64
2022/12/28 12:01:56;;;;;;;37.83;19.77;;;;;;;;;;4941986;28;20236;-65
2022/12/28 12:04:34;;;;;;;12.13;8.30;;;;;;;;;;4948305;28;20215;-65
2022/12/28 12:07:01;;;;;;;15.67;9.13;;;;;;;;;;4947474;28;20213;-65
2022/12/28 12:09:37;;;;;;;9.17;6.57;;;;;;;;;;4960135;28;20244;-65
2022/12/28 12:12:14;;;;;;;6.87;5.80;;;;;;;;;;4934369;28;20209;-65
2022/12/28 12:14:44;;;;;;;7.97;6.00;;;;;;;;;;4942299;28;20279;-65
2022/12/28 12:17:21;;;;;;;5.53;5.03;;;;;;;;;;4943747;28;20218;-65
2022/12/28 12:19:50;;;;;;;6.23;5.63;;;;;;;;;;4945811;28;20299;-65
2022/12/28 12:22:33;;;;;;;8.93;7.50;;;;;;;;;;4945683;28;20599;-65
2022/12/28 12:25:19;;;;;;;8.43;6.37;;;;;;;;;;4955763;28;20205;-65
2022/12/28 12:28:07;;;;;;;6.10;5.50;;;;;;;;;;4950424;28;20319;-65
2022/12/28 12:30:35;;;;;;;11.90;8.30;;;;;;;;;;4928908;28;20213;-65
2022/12/28 12:33:04;;;;;;;7.37;5.07;;;;;;;;;;4934970;28;20592;-65
2022/12/28 12:35:40;;;;;;;5.00;4.57;;;;;;;;;;4936018;28;20939;-66
2022/12/28 12:38:41;;;;;;;5.60;5.03;;;;;;;;;;4919120;28;20232;-65
2022/12/28 12:41:08;;;;;;;5.30;4.80;;;;;;;;;;4903164;28;20269;-65
2022/12/28 12:43:40;;;;;;;7.23;6.40;;;;;;;;;;4926579;28;20951;-64
2022/12/28 12:46:26;;;;;;;5.70;5.10;;;;;;;;;;4918994;28;20213;-64
2022/12/28 12:49:12;;;;;;;4.90;4.47;;;;;;;;;;4912321;28;20842;-65
2022/12/28 12:51:59;;;;;;;6.50;5.90;;;;;;;;;;4929429;28;20200;-63
2022/12/28 12:54:27;;;;;;;4.93;4.07;;;;;;;;;;4922268;28;20237;-63
2022/12/28 12:56:58;;;;;;;5.00;4.50;;;;;;;;;;4920035;28;20205;-65
2022/12/28 12:59:34;;;;;;;6.13;5.47;;;;;;;;;;4945929;28;20669;-63
2022/12/28 13:02:19;;;;;;;10.70;7.00;;;;;;;;;;4936907;28;20211;-63
2022/12/28 13:04:47;;;;;;;4.27;3.87;;;;;;;;;;4940916;28;20273;-63
2022/12/28 13:07:17;;;;;;;4.60;3.70;;;;;;;;;;4954116;28;20678;-62
2022/12/28 13:09:45;;;;;;;4.73;3.90;;;;;;;;;;4932183;28;20227;-63
2022/12/28 13:12:17;;;;;;;4.43;4.03;;;;;;;;;;4923680;28;20229;-65
2022/12/28 13:14:46;;;;;;;4.67;3.93;;;;;;;;;;4939955;28;20726;-64
2022/12/28 13:17:18;;;;;;;3.97;3.63;;;;;;;;;;4934205;28;20223;-64
2022/12/28 13:19:46;;;;;;;4.10;3.40;;;;;;;;;;4952548;28;20213;-64
2022/12/28 13:22:27;;;;;;;3.90;3.60;;;;;;;;;;4941527;28;20227;-64
2022/12/28 13:24:57;;;;;;;3.70;3.40;;;;;;;;;;4937273;28;20268;-64
2022/12/28 13:27:34;;;;;;;4.47;3.57;;;;;;;;;;4933257;28;20763;-65
2022/12/28 13:30:03;;;;;;;4.10;3.70;;;;;;;;;;4936929;28;20656;-63
2022/12/28 13:32:33;;;;;;;6.80;5.50;;;;;;;;;;4947486;28;20233;-63
2022/12/28 13:35:16;;;;;;;4.83;4.33;;;;;;;;;;4944469;28;20741;-63
2022/12/28 13:37:43;;;;;;;7.07;5.20;;;;;;;;;;4926623;28;20240;-63
2022/12/28 13:40:14;;;;;;;7.47;6.00;;;;;;;;;;4932056;28;20299;-62
2022/12/28 13:42:52;;;;;;;6.17;4.33;;;;;;;;;;4916358;28;20267;-63
2022/12/28 13:45:21;;;;;;;5.40;4.90;;;;;;;;;;4927227;28;20213;-63
2022/12/28 13:47:53;;;;;;;5.20;3.80;;;;;;;;;;4943830;28;20220;-63
2022/12/28 13:50:27;;;;;;;5.10;3.80;;;;;;;;;;4918982;28;20209;-62
2022/12/28 13:53:06;;;;;;;5.97;3.90;;;;;;;;;;4941394;28;20243;-63
2022/12/28 13:55:41;;;;;;;4.03;3.70;;;;;;;;;;4926937;28;20225;-62
2022/12/28 13:58:20;;;;;;;5.23;4.33;;;;;;;;;;4938656;28;20217;-63
2022/12/28 14:00:49;;;;;;;4.93;4.30;;;;;;;;;;4924933;28;20213;-63
2022/12/28 14:03:18;;;;;;;5.47;4.73;;;;;;;;;;4914035;28;20241;-63
2022/12/28 14:05:48;;;;;;;6.17;5.57;;;;;;;;;;4916175;28;20217;-63
2022/12/28 14:08:16;;;;;;;5.87;4.33;;;;;;;;;;4924201;28;20292;-62
2022/12/28 14:10:46;;;;;;;7.53;5.73;;;;;;;;;;4912459;28;20700;-63
2022/12/28 14:13:13;;;;;;;4.43;4.00;;;;;;;;;;4921940;28;20290;-63
2022/12/28 14:15:41;;;;;;;5.53;4.43;;;;;;;;;;4921708;28;20236;-62
2022/12/28 14:18:13;;;;;;;6.43;5.13;;;;;;;;;;4935659;28;20215;-62
2022/12/28 14:20:51;;;;;;;6.80;6.10;;;;;;;;;;4905736;28;20779;-62
2022/12/28 14:23:20;;;;;;;7.23;5.67;;;;;;;;;;4935855;28;20322;-63
2022/12/28 14:25:47;;;;;;;5.03;4.20;;;;;;;;;;4929901;28;20571;-62
2022/12/28 14:28:21;;;;;;;5.03;4.37;;;;;;;;;;4908512;28;20212;-62
2022/12/28 14:30:53;;;;;;;5.40;4.90;;;;;;;;;;4916764;28;20260;-63
2022/12/28 14:33:22;;;;;;;5.10;4.60;;;;;;;;;;4910567;28;20254;-61
2022/12/28 14:36:17;;;;;;;5.73;4.10;;;;;;;;;;4933232;28;20723;-61
2022/12/28 14:38:47;;;;;;;5.00;3.80;;;;;;;;;;4949567;28;20208;-64
2022/12/28 14:41:20;;;;;;;7.87;4.50;;;;;;;;;;4937594;28;20215;-63
2022/12/28 14:43:54;;;;;;;5.33;4.27;;;;;;;;;;4921715;28;20270;-63
2022/12/28 14:46:32;;;;;;;4.50;4.10;;;;;;;;;;4944573;28;20209;-61
2022/12/28 14:49:00;;;;;;;7.40;4.30;;;;;;;;;;4911538;28;20214;-62
2022/12/28 14:51:30;;;;;;;5.07;4.23;;;;;;;;;;4916314;28;20220;-64
2022/12/28 14:54:36;;;;;;;4.67;4.20;;;;;;;;;;4919519;28;20244;-62
2022/12/28 14:57:14;;;;;;;4.77;4.33;;;;;;;;;;4931862;28;20205;-63
2022/12/28 14:59:44;;;;;;;7.10;4.30;;;;;;;;;;4951474;28;20209;-62
2022/12/28 15:02:30;;;;;;;5.67;5.07;;;;;;;;;;4930878;28;20645;-64
2022/12/28 15:04:58;;;;;;;5.40;4.33;;;;;;;;;;4922649;28;20283;-63
2022/12/28 15:07:27;;;;;;;7.40;5.40;;;;;;;;;;4931738;28;20215;-63
2022/12/28 15:09:55;;;;;;;5.03;4.50;;;;;;;;;;4918589;28;20209;-63
2022/12/28 15:12:22;;;;;;;6.13;4.50;;;;;;;;;;4921519;28;20232;-63
2022/12/28 15:14:50;;;;;;;5.80;4.60;;;;;;;;;;4917309;28;21393;-62
2022/12/28 15:17:18;;;;;;;5.30;4.40;;;;;;;;;;4939143;28;20224;-63
2022/12/28 15:19:46;;;;;;;4.90;4.40;;;;;;;;;;4952916;28;20213;-63
2022/12/28 15:22:13;;;;;;;5.07;4.53;;;;;;;;;;4935016;28;20216;-63